sensor_id;sensor_type;location;lat;lon;timestamp;temperature;humidity
30047;DHT22;16878;52.542;13.426;2022-12-07T00:00:03;3.60;99.90
30047;DHT22;16878;52.542;13.426;2022-12-07T00:02:28;3.60;99.90
30047;DHT22;16878;52.542;13.426;2022-12-07T00:04:54;3.60;99.90
30047;DHT22;16878;52.542;13.426;2022-12-07T00:07:19;3.60;99.90
30047;DHT22;16878;52.542;13.426;2022-12-07T00:09:45;3.60;99.90
30047;DHT22;16878;52.542;13.426;2022-12-07T00:12:10;3.60;99.90
30047;DHT22;16878;52.542;13.426;2022-12-07T00:14:36;3.60;99.90
30047;DHT22;16878;52.542;13.426;2022-12-07T00:17:01;3.50;99.90
30047;DHT22;16878;52.542;13.426;2022-12-07T00:19:27;3.60;99.90
30047;DHT22;16878;52.542;13.426;2022-12-07T00:21:52;3.60;99.90
30047;DHT22;16878;52.542;13.426;2022-12-07T00:24:18;3.60;99.90
30047;DHT22;16878;52.542;13.426;2022-12-07T00:26:43;3.50;99.90
30047;DHT22;16878;52.542;13.426;2022-12-07T00:29:15;3.50;99.90
30047;DHT22;16878;52.542;13.426;2022-12-07T00:31:40;3.50;99.90
30047;DHT22;16878;52.542;13.426;2022-12-07T00:34:11;3.50;99.90
30047;DHT22;16878;52.542;13.426;2022-12-07T00:36:37;3.50;99.90
30047;DHT22;16878;52.542;13.426;2022-12-07T00:39:02;3.50;99.90
30047;DHT22;16878;52.542;13.426;2022-12-07T00:41:28;3.40;99.90
30047;DHT22;16878;52.542;13.426;2022-12-07T00:43:54;3.40;99.90
30047;DHT22;16878;52.542;13.426;2022-12-07T00:46:20;3.40;99.90
30047;DHT22;16878;52.542;13.426;2022-12-07T00:48:46;3.40;99.90
30047;DHT22;16878;52.542;13.426;2022-12-07T00:51:12;3.40;99.90
30047;DHT22;16878;52.542;13.426;2022-12-07T00:53:38;3.40;99.90
30047;DHT22;16878;52.542;13.426;2022-12-07T00:56:12;3.40;99.90
30047;DHT22;16878;52.542;13.426;2022-12-07T00:58:38;3.30;99.90
30047;DHT22;16878;52.542;13.426;2022-12-07T01:01:04;3.30;99.90
30047;DHT22;16878;52.542;13.426;2022-12-07T01:03:30;3.20;99.90
30047;DHT22;16878;52.542;13.426;2022-12-07T01:05:56;3.10;99.90
30047;DHT22;16878;52.542;13.426;2022-12-07T01:08:22;3.00;99.90
30047;DHT22;16878;52.542;13.426;2022-12-07T01:10:48;3.00;99.90
30047;DHT22;16878;52.542;13.426;2022-12-07T01:13:14;2.90;99.90
30047;DHT22;16878;52.542;13.426;2022-12-07T01:15:41;2.90;99.90
30047;DHT22;16878;52.542;13.426;2022-12-07T01:18:06;2.90;99.90
30047;DHT22;16878;52.542;13.426;2022-12-07T01:20:32;2.90;99.90
30047;DHT22;16878;52.542;13.426;2022-12-07T01:22:57;3.00;99.90
30047;DHT22;16878;52.542;13.426;2022-12-07T01:25:23;3.00;99.90
30047;DHT22;16878;52.542;13.426;2022-12-07T01:27:48;3.00;99.90
30047;DHT22;16878;52.542;13.426;2022-12-07T01:30:14;3.10;99.90
30047;DHT22;16878;52.542;13.426;2022-12-07T01:32:39;3.10;99.90
30047;DHT22;16878;52.542;13.426;2022-12-07T01:35:05;3.10;99.90
30047;DHT22;16878;52.542;13.426;2022-12-07T01:37:37;3.10;99.90
30047;DHT22;16878;52.542;13.426;2022-12-07T01:40:06;3.10;99.90
30047;DHT22;16878;52.542;13.426;2022-12-07T01:42:32;3.10;99.90
30047;DHT22;16878;52.542;13.426;2022-12-07T01:47:42;3.00;99.90
30047;DHT22;16878;52.542;13.426;2022-12-07T01:50:08;3.10;99.90
30047;DHT22;16878;52.542;13.426;2022-12-07T01:52:34;3.10;99.90
30047;DHT22;16878;52.542;13.426;2022-12-07T01:55:03;3.20;99.90
30047;DHT22;16878;52.542;13.426;2022-12-07T01:57:30;3.10;99.90
30047;DHT22;16878;52.542;13.426;2022-12-07T01:59:56;3.20;99.90
30047;DHT22;16878;52.542;13.426;2022-12-07T02:02:32;3.20;99.90
30047;DHT22;16878;52.542;13.426;2022-12-07T02:04:59;3.20;99.90
30047;DHT22;16878;52.542;13.426;2022-12-07T02:07:24;3.30;99.90
30047;DHT22;16878;52.542;13.426;2022-12-07T02:09:51;3.30;99.90
30047;DHT22;16878;52.542;13.426;2022-12-07T02:12:17;3.30;99.90
30047;DHT22;16878;52.542;13.426;2022-12-07T02:14:43;3.30;99.90
30047;DHT22;16878;52.542;13.426;2022-12-07T02:17:14;3.30;99.90
30047;DHT22;16878;52.542;13.426;2022-12-07T02:22:20;3.10;99.90
30047;DHT22;16878;52.542;13.426;2022-12-07T02:30:12;3.00;99.90
30047;DHT22;16878;52.542;13.426;2022-12-07T02:37:49;3.00;99.90
30047;DHT22;16878;52.542;13.426;2022-12-07T02:40:18;3.00;99.90
30047;DHT22;16878;52.542;13.426;2022-12-07T02:42:53;2.90;99.90
30047;DHT22;16878;52.542;13.426;2022-12-07T02:45:21;2.90;99.90
30047;DHT22;16878;52.542;13.426;2022-12-07T02:47:48;2.90;99.90
30047;DHT22;16878;52.542;13.426;2022-12-07T02:50:17;2.90;99.90
30047;DHT22;16878;52.542;13.426;2022-12-07T02:52:43;2.80;99.90
30047;DHT22;16878;52.542;13.426;2022-12-07T02:55:09;2.80;99.90
30047;DHT22;16878;52.542;13.426;2022-12-07T02:57:44;2.90;99.90
30047;DHT22;16878;52.542;13.426;2022-12-07T03:00:13;2.90;99.90
30047;DHT22;16878;52.542;13.426;2022-12-07T03:02:53;2.90;99.90
30047;DHT22;16878;52.542;13.426;2022-12-07T03:05:43;2.90;99.90
30047;DHT22;16878;52.542;13.426;2022-12-07T03:08:11;2.90;99.90
30047;DHT22;16878;52.542;13.426;2022-12-07T03:13:09;2.90;99.90
30047;DHT22;16878;52.542;13.426;2022-12-07T03:15:39;2.90;99.90
30047;DHT22;16878;52.542;13.426;2022-12-07T03:18:05;2.90;99.90
30047;DHT22;16878;52.542;13.426;2022-12-07T03:20:32;2.90;99.90
30047;DHT22;16878;52.542;13.426;2022-12-07T03:23:00;2.90;99.90
30047;DHT22;16878;52.542;13.426;2022-12-07T03:25:26;3.00;99.90
30047;DHT22;16878;52.542;13.426;2022-12-07T03:27:53;3.00;99.90
30047;DHT22;16878;52.542;13.426;2022-12-07T03:30:27;3.10;99.90
30047;DHT22;16878;52.542;13.426;2022-12-07T03:33:09;3.10;99.90
30047;DHT22;16878;52.542;13.426;2022-12-07T03:35:37;3.10;99.90
30047;DHT22;16878;52.542;13.426;2022-12-07T03:40:47;3.20;99.90
30047;DHT22;16878;52.542;13.426;2022-12-07T03:43:15;3.20;99.90
30047;DHT22;16878;52.542;13.426;2022-12-07T03:45:43;3.20;99.90
30047;DHT22;16878;52.542;13.426;2022-12-07T03:53:20;3.30;99.90
30047;DHT22;16878;52.542;13.426;2022-12-07T03:55:48;3.30;99.90
30047;DHT22;16878;52.542;13.426;2022-12-07T03:58:17;3.30;99.90
30047;DHT22;16878;52.542;13.426;2022-12-07T04:00:44;3.30;99.90
30047;DHT22;16878;52.542;13.426;2022-12-07T04:03:10;3.30;99.90
30047;DHT22;16878;52.542;13.426;2022-12-07T04:05:36;3.30;99.90
30047;DHT22;16878;52.542;13.426;2022-12-07T04:08:02;3.30;99.90
30047;DHT22;16878;52.542;13.426;2022-12-07T04:10:27;3.30;99.90
30047;DHT22;16878;52.542;13.426;2022-12-07T04:12:53;3.30;99.90
30047;DHT22;16878;52.542;13.426;2022-12-07T04:15:18;3.30;99.90
30047;DHT22;16878;52.542;13.426;2022-12-07T04:17:44;3.30;99.90
30047;DHT22;16878;52.542;13.426;2022-12-07T04:20:09;3.30;99.90
30047;DHT22;16878;52.542;13.426;2022-12-07T04:22:35;3.30;99.90
30047;DHT22;16878;52.542;13.426;2022-12-07T04:25:01;3.30;99.90
30047;DHT22;16878;52.542;13.426;2022-12-07T04:27:27;3.40;99.90
30047;DHT22;16878;52.542;13.426;2022-12-07T04:29:52;3.30;99.90
30047;DHT22;16878;52.542;13.426;2022-12-07T04:32:18;3.30;99.90
30047;DHT22;16878;52.542;13.426;2022-12-07T04:34:43;3.30;99.90
30047;DHT22;16878;52.542;13.426;2022-12-07T04:37:09;3.30;99.90
30047;DHT22;16878;52.542;13.426;2022-12-07T04:39:34;3.30;99.90
30047;DHT22;16878;52.542;13.426;2022-12-07T04:42:00;3.30;99.90
30047;DHT22;16878;52.542;13.426;2022-12-07T04:44:26;3.30;99.90
30047;DHT22;16878;52.542;13.426;2022-12-07T04:46:52;3.30;99.90
30047;DHT22;16878;52.542;13.426;2022-12-07T04:49:18;3.30;99.90
30047;DHT22;16878;52.542;13.426;2022-12-07T04:51:44;3.30;99.90
30047;DHT22;16878;52.542;13.426;2022-12-07T04:54:10;3.30;99.90
30047;DHT22;16878;52.542;13.426;2022-12-07T04:56:37;3.30;99.90
30047;DHT22;16878;52.542;13.426;2022-12-07T04:59:02;3.30;99.90
30047;DHT22;16878;52.542;13.426;2022-12-07T05:01:28;3.30;99.90
30047;DHT22;16878;52.542;13.426;2022-12-07T05:03:54;3.30;99.90
30047;DHT22;16878;52.542;13.426;2022-12-07T05:06:19;3.30;99.90
30047;DHT22;16878;52.542;13.426;2022-12-07T05:08:45;3.30;99.90
30047;DHT22;16878;52.542;13.426;2022-12-07T05:11:11;3.30;99.90
30047;DHT22;16878;52.542;13.426;2022-12-07T05:13:59;3.30;99.90
30047;DHT22;16878;52.542;13.426;2022-12-07T05:16:25;3.30;99.90
30047;DHT22;16878;52.542;13.426;2022-12-07T05:18:51;3.40;99.90
30047;DHT22;16878;52.542;13.426;2022-12-07T05:21:16;3.40;99.90
30047;DHT22;16878;52.542;13.426;2022-12-07T05:23:42;3.40;99.90
30047;DHT22;16878;52.542;13.426;2022-12-07T05:26:07;3.40;99.90
30047;DHT22;16878;52.542;13.426;2022-12-07T05:28:33;3.40;99.90
30047;DHT22;16878;52.542;13.426;2022-12-07T05:30:58;3.40;99.90
30047;DHT22;16878;52.542;13.426;2022-12-07T05:33:26;3.50;99.90
30047;DHT22;16878;52.542;13.426;2022-12-07T05:35:52;3.50;99.90
30047;DHT22;16878;52.542;13.426;2022-12-07T05:38:17;3.50;99.90
30047;DHT22;16878;52.542;13.426;2022-12-07T05:40:43;3.50;99.90
30047;DHT22;16878;52.542;13.426;2022-12-07T05:43:08;3.50;99.90
30047;DHT22;16878;52.542;13.426;2022-12-07T05:45:34;3.50;99.90
30047;DHT22;16878;52.542;13.426;2022-12-07T05:47:59;3.50;99.90
30047;DHT22;16878;52.542;13.426;2022-12-07T05:50:25;3.60;99.90
30047;DHT22;16878;52.542;13.426;2022-12-07T05:52:50;3.60;99.90
30047;DHT22;16878;52.542;13.426;2022-12-07T05:55:16;3.60;99.90
30047;DHT22;16878;52.542;13.426;2022-12-07T05:57:41;3.60;99.90
30047;DHT22;16878;52.542;13.426;2022-12-07T06:00:27;3.70;99.90
30047;DHT22;16878;52.542;13.426;2022-12-07T06:02:52;3.70;99.90
30047;DHT22;16878;52.542;13.426;2022-12-07T06:05:18;3.70;99.90
30047;DHT22;16878;52.542;13.426;2022-12-07T06:07:43;3.70;99.90
30047;DHT22;16878;52.542;13.426;2022-12-07T06:10:09;3.70;99.90
30047;DHT22;16878;52.542;13.426;2022-12-07T06:12:35;3.70;99.90
30047;DHT22;16878;52.542;13.426;2022-12-07T06:15:00;3.70;99.90
30047;DHT22;16878;52.542;13.426;2022-12-07T06:17:26;3.80;99.90
30047;DHT22;16878;52.542;13.426;2022-12-07T06:19:52;3.80;99.90
30047;DHT22;16878;52.542;13.426;2022-12-07T06:22:17;3.80;99.90
30047;DHT22;16878;52.542;13.426;2022-12-07T06:24:46;3.80;99.90
30047;DHT22;16878;52.542;13.426;2022-12-07T06:27:11;3.80;99.90
30047;DHT22;16878;52.542;13.426;2022-12-07T06:29:37;3.80;99.90
30047;DHT22;16878;52.542;13.426;2022-12-07T06:32:03;3.80;99.90
30047;DHT22;16878;52.542;13.426;2022-12-07T06:34:29;3.80;99.90
30047;DHT22;16878;52.542;13.426;2022-12-07T06:36:55;3.80;99.90
30047;DHT22;16878;52.542;13.426;2022-12-07T06:39:22;3.80;99.90
30047;DHT22;16878;52.542;13.426;2022-12-07T06:41:47;3.80;99.90
30047;DHT22;16878;52.542;13.426;2022-12-07T06:44:13;3.80;99.90
30047;DHT22;16878;52.542;13.426;2022-12-07T06:46:39;3.80;99.90
30047;DHT22;16878;52.542;13.426;2022-12-07T06:49:04;3.80;99.90
30047;DHT22;16878;52.542;13.426;2022-12-07T06:51:31;3.80;99.90
30047;DHT22;16878;52.542;13.426;2022-12-07T06:53:56;3.80;99.90
30047;DHT22;16878;52.542;13.426;2022-12-07T06:56:22;3.80;99.90
30047;DHT22;16878;52.542;13.426;2022-12-07T06:58:48;3.80;99.90
30047;DHT22;16878;52.542;13.426;2022-12-07T07:01:14;3.90;99.90
30047;DHT22;16878;52.542;13.426;2022-12-07T07:03:40;3.90;99.90
30047;DHT22;16878;52.542;13.426;2022-12-07T07:06:05;3.80;99.90
30047;DHT22;16878;52.542;13.426;2022-12-07T07:08:31;3.90;99.90
30047;DHT22;16878;52.542;13.426;2022-12-07T07:10:57;3.90;99.90
30047;DHT22;16878;52.542;13.426;2022-12-07T07:13:22;3.80;99.90
30047;DHT22;16878;52.542;13.426;2022-12-07T07:15:48;3.90;99.90
30047;DHT22;16878;52.542;13.426;2022-12-07T07:18:13;3.90;99.90
30047;DHT22;16878;52.542;13.426;2022-12-07T07:20:39;3.90;99.90
30047;DHT22;16878;52.542;13.426;2022-12-07T07:23:05;4.00;99.90
30047;DHT22;16878;52.542;13.426;2022-12-07T07:25:30;4.00;99.90
30047;DHT22;16878;52.542;13.426;2022-12-07T07:27:56;4.00;99.90
30047;DHT22;16878;52.542;13.426;2022-12-07T07:30:21;4.00;99.90
30047;DHT22;16878;52.542;13.426;2022-12-07T07:32:47;4.00;99.90
30047;DHT22;16878;52.542;13.426;2022-12-07T07:35:12;4.00;99.90
30047;DHT22;16878;52.542;13.426;2022-12-07T07:37:39;4.00;99.90
30047;DHT22;16878;52.542;13.426;2022-12-07T07:40:05;3.90;99.90
30047;DHT22;16878;52.542;13.426;2022-12-07T07:42:30;4.00;99.90
30047;DHT22;16878;52.542;13.426;2022-12-07T07:44:56;4.00;99.90
30047;DHT22;16878;52.542;13.426;2022-12-07T07:47:21;4.00;99.90
30047;DHT22;16878;52.542;13.426;2022-12-07T07:49:47;3.90;99.90
30047;DHT22;16878;52.542;13.426;2022-12-07T07:52:12;4.00;99.90
30047;DHT22;16878;52.542;13.426;2022-12-07T07:54:38;4.10;99.90
30047;DHT22;16878;52.542;13.426;2022-12-07T07:57:04;4.10;99.90
30047;DHT22;16878;52.542;13.426;2022-12-07T07:59:29;4.10;99.90
30047;DHT22;16878;52.542;13.426;2022-12-07T08:01:55;4.10;99.90
30047;DHT22;16878;52.542;13.426;2022-12-07T08:04:20;4.20;99.90
30047;DHT22;16878;52.542;13.426;2022-12-07T08:06:46;4.20;99.90
30047;DHT22;16878;52.542;13.426;2022-12-07T08:09:14;4.20;99.90
30047;DHT22;16878;52.542;13.426;2022-12-07T08:11:40;4.20;99.90
30047;DHT22;16878;52.542;13.426;2022-12-07T08:14:05;4.20;99.90
30047;DHT22;16878;52.542;13.426;2022-12-07T08:16:31;4.20;99.90
30047;DHT22;16878;52.542;13.426;2022-12-07T08:18:57;4.20;99.90
30047;DHT22;16878;52.542;13.426;2022-12-07T08:21:22;4.20;99.90
30047;DHT22;16878;52.542;13.426;2022-12-07T08:23:48;4.30;99.90
30047;DHT22;16878;52.542;13.426;2022-12-07T08:26:14;4.30;99.90
30047;DHT22;16878;52.542;13.426;2022-12-07T08:28:40;4.30;99.90
30047;DHT22;16878;52.542;13.426;2022-12-07T08:31:07;4.30;99.90
30047;DHT22;16878;52.542;13.426;2022-12-07T08:33:34;4.30;99.90
30047;DHT22;16878;52.542;13.426;2022-12-07T08:36:06;4.30;99.90
30047;DHT22;16878;52.542;13.426;2022-12-07T08:38:36;4.30;99.90
30047;DHT22;16878;52.542;13.426;2022-12-07T08:41:01;4.30;99.90
30047;DHT22;16878;52.542;13.426;2022-12-07T08:43:27;4.30;99.90
30047;DHT22;16878;52.542;13.426;2022-12-07T08:48:39;4.30;99.90
30047;DHT22;16878;52.542;13.426;2022-12-07T08:51:06;4.30;99.90
30047;DHT22;16878;52.542;13.426;2022-12-07T08:53:32;4.30;99.90
30047;DHT22;16878;52.542;13.426;2022-12-07T08:55:59;4.30;99.90
30047;DHT22;16878;52.542;13.426;2022-12-07T08:58:25;4.30;99.90
30047;DHT22;16878;52.542;13.426;2022-12-07T09:00:50;4.30;99.90
30047;DHT22;16878;52.542;13.426;2022-12-07T09:03:16;4.40;99.90
30047;DHT22;16878;52.542;13.426;2022-12-07T09:05:42;4.40;99.90
30047;DHT22;16878;52.542;13.426;2022-12-07T09:08:07;4.50;99.90
30047;DHT22;16878;52.542;13.426;2022-12-07T09:10:33;4.50;99.90
30047;DHT22;16878;52.542;13.426;2022-12-07T09:12:59;4.40;99.90
30047;DHT22;16878;52.542;13.426;2022-12-07T09:15:28;4.50;99.90
30047;DHT22;16878;52.542;13.426;2022-12-07T09:17:53;4.50;99.90
30047;DHT22;16878;52.542;13.426;2022-12-07T09:20:19;4.50;99.90
30047;DHT22;16878;52.542;13.426;2022-12-07T09:22:45;4.50;99.90
30047;DHT22;16878;52.542;13.426;2022-12-07T09:25:10;4.50;99.90
30047;DHT22;16878;52.542;13.426;2022-12-07T09:27:36;4.50;99.90
30047;DHT22;16878;52.542;13.426;2022-12-07T09:30:02;4.40;99.90
30047;DHT22;16878;52.542;13.426;2022-12-07T09:32:27;4.40;99.90
30047;DHT22;16878;52.542;13.426;2022-12-07T09:34:53;4.30;99.90
30047;DHT22;16878;52.542;13.426;2022-12-07T09:37:19;4.30;99.90
30047;DHT22;16878;52.542;13.426;2022-12-07T09:39:44;4.30;99.90
30047;DHT22;16878;52.542;13.426;2022-12-07T09:42:10;4.20;99.90
30047;DHT22;16878;52.542;13.426;2022-12-07T09:44:44;4.30;99.90
30047;DHT22;16878;52.542;13.426;2022-12-07T09:47:09;4.20;99.90
30047;DHT22;16878;52.542;13.426;2022-12-07T09:49:35;4.20;99.90
30047;DHT22;16878;52.542;13.426;2022-12-07T09:54:39;4.20;99.90
30047;DHT22;16878;52.542;13.426;2022-12-07T09:57:07;4.20;99.90
30047;DHT22;16878;52.542;13.426;2022-12-07T09:59:33;4.20;99.90
30047;DHT22;16878;52.542;13.426;2022-12-07T10:02:04;4.10;99.90
30047;DHT22;16878;52.542;13.426;2022-12-07T10:04:42;4.20;99.90
30047;DHT22;16878;52.542;13.426;2022-12-07T10:07:09;4.20;99.90
30047;DHT22;16878;52.542;13.426;2022-12-07T10:09:34;4.20;99.90
30047;DHT22;16878;52.542;13.426;2022-12-07T10:12:11;4.20;99.90
30047;DHT22;16878;52.542;13.426;2022-12-07T10:14:51;4.20;99.90
30047;DHT22;16878;52.542;13.426;2022-12-07T10:17:28;4.30;99.90
30047;DHT22;16878;52.542;13.426;2022-12-07T10:22:41;4.30;99.90
30047;DHT22;16878;52.542;13.426;2022-12-07T10:25:19;4.20;99.90
30047;DHT22;16878;52.542;13.426;2022-12-07T10:27:57;4.20;99.90
30047;DHT22;16878;52.542;13.426;2022-12-07T10:30:26;4.20;99.90
30047;DHT22;16878;52.542;13.426;2022-12-07T10:32:51;4.30;99.90
30047;DHT22;16878;52.542;13.426;2022-12-07T10:35:29;4.30;99.90
30047;DHT22;16878;52.542;13.426;2022-12-07T10:37:56;4.40;99.90
30047;DHT22;16878;52.542;13.426;2022-12-07T10:40:33;4.30;99.90
30047;DHT22;16878;52.542;13.426;2022-12-07T10:43:07;4.30;99.90
30047;DHT22;16878;52.542;13.426;2022-12-07T10:48:30;4.30;99.90
30047;DHT22;16878;52.542;13.426;2022-12-07T11:01:08;4.00;99.90
30047;DHT22;16878;52.542;13.426;2022-12-07T11:11:06;4.30;99.90
30047;DHT22;16878;52.542;13.426;2022-12-07T11:19:06;4.40;99.90
30047;DHT22;16878;52.542;13.426;2022-12-07T11:21:52;4.30;99.90
30047;DHT22;16878;52.542;13.426;2022-12-07T11:24:26;4.40;99.90
30047;DHT22;16878;52.542;13.426;2022-12-07T11:27:07;4.30;99.90
30047;DHT22;16878;52.542;13.426;2022-12-07T11:32:17;4.40;99.90
30047;DHT22;16878;52.542;13.426;2022-12-07T11:34:57;4.30;99.90
30047;DHT22;16878;52.542;13.426;2022-12-07T11:37:28;4.20;99.90
30047;DHT22;16878;52.542;13.426;2022-12-07T11:42:52;4.20;99.90
30047;DHT22;16878;52.542;13.426;2022-12-07T11:47:47;4.20;99.90
30047;DHT22;16878;52.542;13.426;2022-12-07T11:50:36;4.20;99.90
30047;DHT22;16878;52.542;13.426;2022-12-07T11:58:04;4.40;99.90
30047;DHT22;16878;52.542;13.426;2022-12-07T12:00:30;4.40;99.90
30047;DHT22;16878;52.542;13.426;2022-12-07T12:03:13;4.50;99.90
30047;DHT22;16878;52.542;13.426;2022-12-07T12:05:41;4.50;99.90
30047;DHT22;16878;52.542;13.426;2022-12-07T12:08:14;4.50;99.90
30047;DHT22;16878;52.542;13.426;2022-12-07T12:10:55;4.60;99.90
30047;DHT22;16878;52.542;13.426;2022-12-07T12:21:22;4.60;99.90
30047;DHT22;16878;52.542;13.426;2022-12-07T12:23:54;4.60;99.90
30047;DHT22;16878;52.542;13.426;2022-12-07T12:26:22;4.70;99.90
30047;DHT22;16878;52.542;13.426;2022-12-07T12:33:46;4.70;99.90
30047;DHT22;16878;52.542;13.426;2022-12-07T12:43:59;4.70;99.90
30047;DHT22;16878;52.542;13.426;2022-12-07T12:59:33;4.70;99.90
30047;DHT22;16878;52.542;13.426;2022-12-07T13:02:21;4.70;99.90
30047;DHT22;16878;52.542;13.426;2022-12-07T13:04:50;4.70;99.90
30047;DHT22;16878;52.542;13.426;2022-12-07T13:10:00;4.60;99.90
30047;DHT22;16878;52.542;13.426;2022-12-07T13:12:26;4.70;99.90
30047;DHT22;16878;52.542;13.426;2022-12-07T13:14:53;4.70;99.90
30047;DHT22;16878;52.542;13.426;2022-12-07T13:20:04;4.60;99.90
30047;DHT22;16878;52.542;13.426;2022-12-07T13:24:59;4.50;99.90
30047;DHT22;16878;52.542;13.426;2022-12-07T13:27:28;4.50;99.90
30047;DHT22;16878;52.542;13.426;2022-12-07T13:29:55;4.50;99.90
30047;DHT22;16878;52.542;13.426;2022-12-07T13:32:28;4.40;99.90
30047;DHT22;16878;52.542;13.426;2022-12-07T13:34:53;4.40;99.90
30047;DHT22;16878;52.542;13.426;2022-12-07T13:39:49;4.50;99.90
30047;DHT22;16878;52.542;13.426;2022-12-07T13:42:25;4.50;99.90
30047;DHT22;16878;52.542;13.426;2022-12-07T13:44:51;4.50;99.90
30047;DHT22;16878;52.542;13.426;2022-12-07T13:47:19;4.50;99.90
30047;DHT22;16878;52.542;13.426;2022-12-07T13:49:53;4.60;99.90
30047;DHT22;16878;52.542;13.426;2022-12-07T13:52:20;4.60;99.90
30047;DHT22;16878;52.542;13.426;2022-12-07T13:54:54;4.60;99.90
30047;DHT22;16878;52.542;13.426;2022-12-07T13:57:20;4.60;99.90
30047;DHT22;16878;52.542;13.426;2022-12-07T13:59:47;4.60;99.90
30047;DHT22;16878;52.542;13.426;2022-12-07T14:04:45;4.70;99.90
30047;DHT22;16878;52.542;13.426;2022-12-07T14:07:24;4.60;99.90
30047;DHT22;16878;52.542;13.426;2022-12-07T14:09:57;4.70;99.90
30047;DHT22;16878;52.542;13.426;2022-12-07T14:12:24;4.60;99.90
30047;DHT22;16878;52.542;13.426;2022-12-07T14:14:50;4.50;99.90
30047;DHT22;16878;52.542;13.426;2022-12-07T14:17:17;4.50;99.90
30047;DHT22;16878;52.542;13.426;2022-12-07T14:22:28;4.40;99.90
30047;DHT22;16878;52.542;13.426;2022-12-07T14:24:58;4.40;99.90
30047;DHT22;16878;52.542;13.426;2022-12-07T14:27:24;4.50;99.90
30047;DHT22;16878;52.542;13.426;2022-12-07T14:29:56;4.40;99.90
30047;DHT22;16878;52.542;13.426;2022-12-07T14:32:23;4.40;99.90
30047;DHT22;16878;52.542;13.426;2022-12-07T14:34:57;4.50;99.90
30047;DHT22;16878;52.542;13.426;2022-12-07T14:37:23;4.50;99.90
30047;DHT22;16878;52.542;13.426;2022-12-07T14:39:48;4.50;99.90
30047;DHT22;16878;52.542;13.426;2022-12-07T14:42:14;4.50;99.90
30047;DHT22;16878;52.542;13.426;2022-12-07T14:44:39;4.50;99.90
30047;DHT22;16878;52.542;13.426;2022-12-07T14:47:07;4.40;99.90
30047;DHT22;16878;52.542;13.426;2022-12-07T14:49:33;4.40;99.90
30047;DHT22;16878;52.542;13.426;2022-12-07T14:51:59;4.40;99.90
30047;DHT22;16878;52.542;13.426;2022-12-07T14:54:24;4.40;99.90
30047;DHT22;16878;52.542;13.426;2022-12-07T14:56:52;4.30;99.90
30047;DHT22;16878;52.542;13.426;2022-12-07T14:59:18;4.30;99.90
30047;DHT22;16878;52.542;13.426;2022-12-07T15:01:44;4.20;99.90
30047;DHT22;16878;52.542;13.426;2022-12-07T15:04:10;4.10;99.90
30047;DHT22;16878;52.542;13.426;2022-12-07T15:06:35;4.10;99.90
30047;DHT22;16878;52.542;13.426;2022-12-07T15:09:01;4.10;99.90
30047;DHT22;16878;52.542;13.426;2022-12-07T15:11:27;4.00;99.90
30047;DHT22;16878;52.542;13.426;2022-12-07T15:13:56;4.00;99.90
30047;DHT22;16878;52.542;13.426;2022-12-07T15:16:36;4.00;99.90
30047;DHT22;16878;52.542;13.426;2022-12-07T15:19:02;3.90;99.90
30047;DHT22;16878;52.542;13.426;2022-12-07T15:21:28;3.80;99.90
30047;DHT22;16878;52.542;13.426;2022-12-07T15:23:53;3.80;99.90
30047;DHT22;16878;52.542;13.426;2022-12-07T15:26:19;3.80;99.90
30047;DHT22;16878;52.542;13.426;2022-12-07T15:28:45;3.90;99.90
30047;DHT22;16878;52.542;13.426;2022-12-07T15:31:11;3.90;99.90
30047;DHT22;16878;52.542;13.426;2022-12-07T15:33:37;3.90;99.90
30047;DHT22;16878;52.542;13.426;2022-12-07T15:36:03;3.80;99.90
30047;DHT22;16878;52.542;13.426;2022-12-07T15:38:28;3.80;99.90
30047;DHT22;16878;52.542;13.426;2022-12-07T15:40:55;3.80;99.90
30047;DHT22;16878;52.542;13.426;2022-12-07T15:43:21;3.70;99.90
30047;DHT22;16878;52.542;13.426;2022-12-07T15:46:05;3.70;99.90
30047;DHT22;16878;52.542;13.426;2022-12-07T15:48:30;3.80;99.90
30047;DHT22;16878;52.542;13.426;2022-12-07T15:51:06;3.90;99.90
30047;DHT22;16878;52.542;13.426;2022-12-07T15:53:31;3.90;99.90
30047;DHT22;16878;52.542;13.426;2022-12-07T15:55:57;3.90;99.90
30047;DHT22;16878;52.542;13.426;2022-12-07T15:58:22;3.90;99.90
30047;DHT22;16878;52.542;13.426;2022-12-07T16:00:48;4.00;99.90
30047;DHT22;16878;52.542;13.426;2022-12-07T16:03:14;4.00;99.90
30047;DHT22;16878;52.542;13.426;2022-12-07T16:05:39;4.00;99.90
30047;DHT22;16878;52.542;13.426;2022-12-07T16:08:05;4.00;99.90
30047;DHT22;16878;52.542;13.426;2022-12-07T16:10:30;4.00;99.90
30047;DHT22;16878;52.542;13.426;2022-12-07T16:12:56;3.90;99.90
30047;DHT22;16878;52.542;13.426;2022-12-07T16:15:22;3.90;99.90
30047;DHT22;16878;52.542;13.426;2022-12-07T16:17:49;3.90;99.90
30047;DHT22;16878;52.542;13.426;2022-12-07T16:20:15;3.90;99.90
30047;DHT22;16878;52.542;13.426;2022-12-07T16:22:41;3.80;99.90
30047;DHT22;16878;52.542;13.426;2022-12-07T16:25:06;3.80;99.90
30047;DHT22;16878;52.542;13.426;2022-12-07T16:27:32;3.80;99.90
30047;DHT22;16878;52.542;13.426;2022-12-07T16:29:57;3.70;99.90
30047;DHT22;16878;52.542;13.426;2022-12-07T16:32:23;3.80;99.90
30047;DHT22;16878;52.542;13.426;2022-12-07T16:34:49;3.80;99.90
30047;DHT22;16878;52.542;13.426;2022-12-07T16:37:14;3.80;99.90
30047;DHT22;16878;52.542;13.426;2022-12-07T16:39:40;3.70;99.90
30047;DHT22;16878;52.542;13.426;2022-12-07T16:42:05;3.60;99.90
30047;DHT22;16878;52.542;13.426;2022-12-07T16:44:31;3.50;99.90
30047;DHT22;16878;52.542;13.426;2022-12-07T16:46:56;3.50;99.90
30047;DHT22;16878;52.542;13.426;2022-12-07T16:49:22;3.40;99.90
30047;DHT22;16878;52.542;13.426;2022-12-07T16:51:49;3.40;99.90
30047;DHT22;16878;52.542;13.426;2022-12-07T16:54:15;3.40;99.90
30047;DHT22;16878;52.542;13.426;2022-12-07T16:56:41;3.30;99.90
30047;DHT22;16878;52.542;13.426;2022-12-07T16:59:07;3.30;99.90
30047;DHT22;16878;52.542;13.426;2022-12-07T17:01:35;3.30;99.90
30047;DHT22;16878;52.542;13.426;2022-12-07T17:04:01;3.20;99.90
30047;DHT22;16878;52.542;13.426;2022-12-07T17:06:27;3.20;99.90
30047;DHT22;16878;52.542;13.426;2022-12-07T17:08:53;3.20;99.90
30047;DHT22;16878;52.542;13.426;2022-12-07T17:11:29;3.10;99.90
30047;DHT22;16878;52.542;13.426;2022-12-07T17:13:57;3.10;99.90
30047;DHT22;16878;52.542;13.426;2022-12-07T17:16:41;3.10;99.90
30047;DHT22;16878;52.542;13.426;2022-12-07T17:19:08;3.00;99.90
30047;DHT22;16878;52.542;13.426;2022-12-07T17:21:34;3.00;99.90
30047;DHT22;16878;52.542;13.426;2022-12-07T17:24:01;3.00;99.90
30047;DHT22;16878;52.542;13.426;2022-12-07T17:26:27;3.00;99.90
30047;DHT22;16878;52.542;13.426;2022-12-07T17:28:53;3.00;99.90
30047;DHT22;16878;52.542;13.426;2022-12-07T17:31:19;3.00;99.90
30047;DHT22;16878;52.542;13.426;2022-12-07T17:33:45;3.00;99.90